sensor_id;sensor_type;location;lat;lon;timestamp;pressure;altitude;pressure_sealevel;temperature;humidity
78825;BME280;68176;45.554;10.220;2023-03-01T00:00:53;100359.13;;;9.43;54.47
78825;BME280;68176;45.554;10.220;2023-03-01T00:03:26;100362.25;;;9.48;54.50
78825;BME280;68176;45.554;10.220;2023-03-01T00:05:53;100373.31;;;9.52;54.60
78825;BME280;68176;45.554;10.220;2023-03-01T00:08:24;100357.25;;;9.45;54.01
78825;BME280;68176;45.554;10.220;2023-03-01T00:13:35;100364.50;;;9.53;54.67
78825;BME280;68176;45.554;10.220;2023-03-01T00:16:06;100351.03;;;9.46;54.74
78825;BME280;68176;45.554;10.220;2023-03-01T00:18:34;100351.50;;;9.40;54.60
78825;BME280;68176;45.554;10.220;2023-03-01T00:21:00;100341.47;;;9.34;54.66
78825;BME280;68176;45.554;10.220;2023-03-01T00:23:27;100353.16;;;9.41;55.05
78825;BME280;68176;45.554;10.220;2023-03-01T00:25:57;100351.56;;;9.51;54.46
78825;BME280;68176;45.554;10.220;2023-03-01T00:28:27;100322.94;;;9.37;54.77
78825;BME280;68176;45.554;10.220;2023-03-01T00:31:03;100340.56;;;9.46;54.47
78825;BME280;68176;45.554;10.220;2023-03-01T00:33:29;100344.16;;;9.45;54.59
78825;BME280;68176;45.554;10.220;2023-03-01T00:35:58;100341.31;;;9.48;54.70
78825;BME280;68176;45.554;10.220;2023-03-01T00:38:27;100341.72;;;9.42;54.53
78825;BME280;68176;45.554;10.220;2023-03-01T00:41:05;100335.56;;;9.43;54.50
78825;BME280;68176;45.554;10.220;2023-03-01T00:43:31;100314.59;;;9.32;54.76
78825;BME280;68176;45.554;10.220;2023-03-01T00:46:05;100329.84;;;9.38;54.71
78825;BME280;68176;45.554;10.220;2023-03-01T00:48:32;100326.47;;;9.36;55.04
78825;BME280;68176;45.554;10.220;2023-03-01T00:51:13;100324.84;;;9.35;54.70
78825;BME280;68176;45.554;10.220;2023-03-01T00:53:43;100325.91;;;9.33;54.86
78825;BME280;68176;45.554;10.220;2023-03-01T00:56:10;100313.75;;;9.32;54.95
78825;BME280;68176;45.554;10.220;2023-03-01T00:58:37;100301.59;;;9.31;54.85
78825;BME280;68176;45.554;10.220;2023-03-01T01:01:16;100310.31;;;9.42;54.80
78825;BME280;68176;45.554;10.220;2023-03-01T01:03:57;100300.91;;;9.40;55.30
78825;BME280;68176;45.554;10.220;2023-03-01T01:06:26;100300.31;;;9.36;55.12
78825;BME280;68176;45.554;10.220;2023-03-01T01:08:53;100290.50;;;9.27;55.28
78825;BME280;68176;45.554;10.220;2023-03-01T01:11:22;100270.78;;;9.23;55.05
78825;BME280;68176;45.554;10.220;2023-03-01T01:13:50;100296.75;;;9.37;55.25
78825;BME280;68176;45.554;10.220;2023-03-01T01:16:22;100302.00;;;9.37;55.11
78825;BME280;68176;45.554;10.220;2023-03-01T01:18:50;100286.97;;;9.28;54.78
78825;BME280;68176;45.554;10.220;2023-03-01T01:21:23;100286.19;;;9.39;55.28
78825;BME280;68176;45.554;10.220;2023-03-01T01:23:51;100267.72;;;9.29;55.08
78825;BME280;68176;45.554;10.220;2023-03-01T01:26:28;100272.59;;;9.34;54.94
78825;BME280;68176;45.554;10.220;2023-03-01T01:28:54;100268.19;;;9.34;55.41
78825;BME280;68176;45.554;10.220;2023-03-01T01:31:21;100272.47;;;9.35;55.07
78825;BME280;68176;45.554;10.220;2023-03-01T01:33:52;100250.41;;;9.27;55.06
78825;BME280;68176;45.554;10.220;2023-03-01T01:36:23;100243.63;;;9.24;55.08
78825;BME280;68176;45.554;10.220;2023-03-01T01:38:51;100261.19;;;9.35;55.16
78825;BME280;68176;45.554;10.220;2023-03-01T01:41:26;100247.81;;;9.27;55.01
78825;BME280;68176;45.554;10.220;2023-03-01T01:46:37;100243.63;;;9.24;55.53
78825;BME280;68176;45.554;10.220;2023-03-01T01:49:07;100235.09;;;9.22;55.39
78825;BME280;68176;45.554;10.220;2023-03-01T01:51:39;100218.38;;;9.12;55.38
78825;BME280;68176;45.554;10.220;2023-03-01T01:54:11;100234.47;;;9.19;55.40
78825;BME280;68176;45.554;10.220;2023-03-01T01:56:39;100241.25;;;9.21;55.30
78825;BME280;68176;45.554;10.220;2023-03-01T01:59:07;100237.31;;;9.16;55.22
78825;BME280;68176;45.554;10.220;2023-03-01T02:01:33;100228.41;;;9.18;55.25
78825;BME280;68176;45.554;10.220;2023-03-01T02:04:01;100217.31;;;9.15;55.55
78825;BME280;68176;45.554;10.220;2023-03-01T02:06:41;100231.28;;;9.26;55.26
78825;BME280;68176;45.554;10.220;2023-03-01T02:09:13;100228.16;;;9.21;55.53
78825;BME280;68176;45.554;10.220;2023-03-01T02:11:40;100233.63;;;9.18;55.27
78825;BME280;68176;45.554;10.220;2023-03-01T02:14:06;100220.06;;;9.13;55.41
78825;BME280;68176;45.554;10.220;2023-03-01T02:16:34;100207.59;;;9.17;55.38
78825;BME280;68176;45.554;10.220;2023-03-01T02:19:04;100201.63;;;9.15;55.55
78825;BME280;68176;45.554;10.220;2023-03-01T02:21:49;100210.59;;;9.23;55.27
78825;BME280;68176;45.554;10.220;2023-03-01T02:24:37;100186.28;;;9.10;55.46
78825;BME280;68176;45.554;10.220;2023-03-01T02:27:06;100210.31;;;9.15;55.38
78825;BME280;68176;45.554;10.220;2023-03-01T02:29:31;100209.00;;;9.09;55.50
78825;BME280;68176;45.554;10.220;2023-03-01T02:32:02;100188.16;;;9.08;55.69
78825;BME280;68176;45.554;10.220;2023-03-01T02:34:30;100199.00;;;9.15;55.72
78825;BME280;68176;45.554;10.220;2023-03-01T02:37:03;100183.66;;;9.10;55.42
78825;BME280;68176;45.554;10.220;2023-03-01T02:39:46;100196.91;;;9.20;55.17
78825;BME280;68176;45.554;10.220;2023-03-01T02:42:21;100191.38;;;9.11;55.72
78825;BME280;68176;45.554;10.220;2023-03-01T02:44:51;100192.22;;;9.12;55.67
78825;BME280;68176;45.554;10.220;2023-03-01T02:47:17;100167.44;;;8.94;55.62
78825;BME280;68176;45.554;10.220;2023-03-01T02:49:45;100189.75;;;9.10;55.55
78825;BME280;68176;45.554;10.220;2023-03-01T02:52:42;100164.03;;;9.04;55.51
78825;BME280;68176;45.554;10.220;2023-03-01T02:55:16;100179.59;;;9.06;55.63
78825;BME280;68176;45.554;10.220;2023-03-01T02:57:44;100156.97;;;8.94;55.69
78825;BME280;68176;45.554;10.220;2023-03-01T03:00:17;100164.47;;;8.98;55.80
78825;BME280;68176;45.554;10.220;2023-03-01T03:02:51;100161.97;;;8.97;55.81
78825;BME280;68176;45.554;10.220;2023-03-01T03:05:30;100182.22;;;9.06;55.91
78825;BME280;68176;45.554;10.220;2023-03-01T03:07:57;100153.44;;;8.95;56.10
78825;BME280;68176;45.554;10.220;2023-03-01T03:10:40;100154.38;;;8.94;56.04
78825;BME280;68176;45.554;10.220;2023-03-01T03:13:15;100155.81;;;8.98;55.88
78825;BME280;68176;45.554;10.220;2023-03-01T03:15:42;100148.06;;;8.96;55.95
78825;BME280;68176;45.554;10.220;2023-03-01T03:18:14;100156.75;;;8.97;56.17
78825;BME280;68176;45.554;10.220;2023-03-01T03:20:42;100158.19;;;9.01;55.78
78825;BME280;68176;45.554;10.220;2023-03-01T03:23:09;100147.72;;;9.01;55.95
78825;BME280;68176;45.554;10.220;2023-03-01T03:25:39;100146.28;;;8.97;56.00
78825;BME280;68176;45.554;10.220;2023-03-01T03:28:18;100125.94;;;8.89;55.58
78825;BME280;68176;45.554;10.220;2023-03-01T03:30:44;100151.28;;;9.00;55.90
78825;BME280;68176;45.554;10.220;2023-03-01T03:33:13;100138.78;;;8.92;55.63
78825;BME280;68176;45.554;10.220;2023-03-01T03:35:42;100136.16;;;8.92;55.40
78825;BME280;68176;45.554;10.220;2023-03-01T03:38:18;100144.50;;;8.97;56.10
78825;BME280;68176;45.554;10.220;2023-03-01T03:40:52;100143.41;;;8.89;55.79
78825;BME280;68176;45.554;10.220;2023-03-01T03:43:34;100138.91;;;8.91;55.77
78825;BME280;68176;45.554;10.220;2023-03-01T03:46:04;100128.38;;;8.80;55.99
78825;BME280;68176;45.554;10.220;2023-03-01T03:48:34;100142.97;;;8.95;56.13
78825;BME280;68176;45.554;10.220;2023-03-01T03:50:59;100122.22;;;8.81;55.88
78825;BME280;68176;45.554;10.220;2023-03-01T03:53:28;100149.38;;;8.91;55.84
78825;BME280;68176;45.554;10.220;2023-03-01T03:55:57;100137.84;;;8.93;55.63
78825;BME280;68176;45.554;10.220;2023-03-01T03:58:27;100147.97;;;8.98;55.88
78825;BME280;68176;45.554;10.220;2023-03-01T04:00:57;100141.28;;;8.94;55.71
78825;BME280;68176;45.554;10.220;2023-03-01T04:03:28;100137.50;;;8.98;55.73
78825;BME280;68176;45.554;10.220;2023-03-01T04:05:58;100147.97;;;8.98;55.89
78825;BME280;68176;45.554;10.220;2023-03-01T04:08:28;100128.66;;;8.88;55.78
78825;BME280;68176;45.554;10.220;2023-03-01T04:10:59;100146.06;;;9.00;55.67
78825;BME280;68176;45.554;10.220;2023-03-01T04:13:27;100134.59;;;8.90;55.71
78825;BME280;68176;45.554;10.220;2023-03-01T04:15:57;100120.81;;;8.88;55.50
78825;BME280;68176;45.554;10.220;2023-03-01T04:18:27;100132.72;;;8.92;55.44
78825;BME280;68176;45.554;10.220;2023-03-01T04:20:57;100124.50;;;8.85;55.56
78825;BME280;68176;45.554;10.220;2023-03-01T04:23:27;100136.28;;;8.91;55.96
78825;BME280;68176;45.554;10.220;2023-03-01T04:25:58;100110.00;;;8.81;55.92
78825;BME280;68176;45.554;10.220;2023-03-01T04:31:03;100132.00;;;8.90;56.11
78825;BME280;68176;45.554;10.220;2023-03-01T04:36:07;100117.69;;;8.72;56.34
78825;BME280;68176;45.554;10.220;2023-03-01T04:38:35;100133.38;;;8.83;55.90
78825;BME280;68176;45.554;10.220;2023-03-01T04:41:04;100121.50;;;8.79;56.34
78825;BME280;68176;45.554;10.220;2023-03-01T04:43:32;100128.38;;;8.80;56.24
78825;BME280;68176;45.554;10.220;2023-03-01T04:46:03;100103.53;;;8.74;56.23
78825;BME280;68176;45.554;10.220;2023-03-01T04:48:32;100117.94;;;8.80;56.21
78825;BME280;68176;45.554;10.220;2023-03-01T04:51:02;100113.53;;;8.80;56.02
78825;BME280;68176;45.554;10.220;2023-03-01T04:53:32;100114.59;;;8.78;55.78
78825;BME280;68176;45.554;10.220;2023-03-01T04:56:02;100115.09;;;8.83;55.73
78825;BME280;68176;45.554;10.220;2023-03-01T04:58:32;100098.53;;;8.71;55.69
78825;BME280;68176;45.554;10.220;2023-03-01T05:01:08;100122.69;;;8.86;55.56
78825;BME280;68176;45.554;10.220;2023-03-01T05:03:41;100141.38;;;8.81;55.90
78825;BME280;68176;45.554;10.220;2023-03-01T05:06:07;100122.78;;;8.73;56.15
78825;BME280;68176;45.554;10.220;2023-03-01T05:08:38;100122.78;;;8.73;55.96
78825;BME280;68176;45.554;10.220;2023-03-01T05:11:04;100120.28;;;8.72;56.20
78825;BME280;68176;45.554;10.220;2023-03-01T05:13:35;100104.13;;;8.67;56.06
78825;BME280;68176;45.554;10.220;2023-03-01T05:16:05;100116.22;;;8.68;56.38
78825;BME280;68176;45.554;10.220;2023-03-01T05:18:34;100121.97;;;8.73;56.06
78825;BME280;68176;45.554;10.220;2023-03-01T05:21:09;100126.97;;;8.76;55.73
78825;BME280;68176;45.554;10.220;2023-03-01T05:23:35;100122.63;;;8.64;56.46
78825;BME280;68176;45.554;10.220;2023-03-01T05:26:05;100109.69;;;8.62;56.07
78825;BME280;68176;45.554;10.220;2023-03-01T05:28:40;100133.59;;;8.69;56.19
78825;BME280;68176;45.554;10.220;2023-03-01T05:31:06;100112.63;;;8.57;56.14
78825;BME280;68176;45.554;10.220;2023-03-01T05:33:38;100136.59;;;8.75;55.78
78825;BME280;68176;45.554;10.220;2023-03-01T05:36:06;100121.47;;;8.68;56.27
78825;BME280;68176;45.554;10.220;2023-03-01T05:38:37;100121.69;;;8.65;55.88
78825;BME280;68176;45.554;10.220;2023-03-01T05:41:04;100147.28;;;8.72;56.42
78825;BME280;68176;45.554;10.220;2023-03-01T05:43:34;100129.53;;;8.65;56.06
78825;BME280;68176;45.554;10.220;2023-03-01T05:46:04;100126.31;;;8.61;56.46
78825;BME280;68176;45.554;10.220;2023-03-01T05:48:34;100117.63;;;8.61;55.79
78825;BME280;68176;45.554;10.220;2023-03-01T05:51:04;100119.28;;;8.62;55.82
78825;BME280;68176;45.554;10.220;2023-03-01T05:53:34;100130.47;;;8.64;56.12
78825;BME280;68176;45.554;10.220;2023-03-01T05:56:07;100139.53;;;8.71;55.88
78825;BME280;68176;45.554;10.220;2023-03-01T05:58:34;100141.91;;;8.74;56.30
78825;BME280;68176;45.554;10.220;2023-03-01T06:01:11;100149.53;;;8.77;55.77
78825;BME280;68176;45.554;10.220;2023-03-01T06:03:40;100132.28;;;8.63;56.46
78825;BME280;68176;45.554;10.220;2023-03-01T06:06:06;100139.75;;;8.68;56.28
78825;BME280;68176;45.554;10.220;2023-03-01T06:08:34;100127.66;;;8.67;56.41
78825;BME280;68176;45.554;10.220;2023-03-01T06:11:04;100123.38;;;8.66;55.99
78825;BME280;68176;45.554;10.220;2023-03-01T06:13:41;100141.91;;;8.74;56.05
78825;BME280;68176;45.554;10.220;2023-03-01T06:16:25;100141.66;;;8.66;56.08
78825;BME280;68176;45.554;10.220;2023-03-01T06:18:53;100118.81;;;8.56;56.28
78825;BME280;68176;45.554;10.220;2023-03-01T06:21:19;100120.69;;;8.54;56.18
78825;BME280;68176;45.554;10.220;2023-03-01T06:23:44;100115.59;;;8.53;56.15
78825;BME280;68176;45.554;10.220;2023-03-01T06:26:15;100133.91;;;8.64;55.97
78825;BME280;68176;45.554;10.220;2023-03-01T06:28:45;100137.88;;;8.70;55.95
78825;BME280;68176;45.554;10.220;2023-03-01T06:31:14;100144.97;;;8.68;56.08
78825;BME280;68176;45.554;10.220;2023-03-01T06:33:45;100122.03;;;8.60;56.28
78825;BME280;68176;45.554;10.220;2023-03-01T06:36:17;100134.53;;;8.68;56.04
78825;BME280;68176;45.554;10.220;2023-03-01T06:38:44;100146.66;;;8.69;56.26
78825;BME280;68176;45.554;10.220;2023-03-01T06:41:15;100143.34;;;8.67;56.27
78825;BME280;68176;45.554;10.220;2023-03-01T06:43:45;100157.84;;;8.71;56.16
78825;BME280;68176;45.554;10.220;2023-03-01T06:46:15;100139.53;;;8.71;56.37
78825;BME280;68176;45.554;10.220;2023-03-01T06:48:46;100141.44;;;8.69;55.69
78825;BME280;68176;45.554;10.220;2023-03-01T06:51:15;100133.31;;;8.61;56.34
78825;BME280;68176;45.554;10.220;2023-03-01T06:53:48;100136.66;;;8.63;55.97
78825;BME280;68176;45.554;10.220;2023-03-01T06:56:15;100153.69;;;8.44;51.14
78825;BME280;68176;45.554;10.220;2023-03-01T06:58:45;100129.75;;;8.01;50.57
78825;BME280;68176;45.554;10.220;2023-03-01T07:01:14;100141.31;;;7.74;51.03
78825;BME280;68176;45.554;10.220;2023-03-01T07:03:45;100127.97;;;7.66;51.09
78825;BME280;68176;45.554;10.220;2023-03-01T07:06:16;100141.75;;;7.68;50.63
78825;BME280;68176;45.554;10.220;2023-03-01T07:08:45;100145.00;;;7.59;51.19
78825;BME280;68176;45.554;10.220;2023-03-01T07:11:15;100130.19;;;7.34;51.53
78825;BME280;68176;45.554;10.220;2023-03-01T07:13:45;100131.13;;;7.20;52.31
78825;BME280;68176;45.554;10.220;2023-03-01T07:16:15;100128.38;;;7.09;52.68
78825;BME280;68176;45.554;10.220;2023-03-01T07:18:45;100108.66;;;6.80;53.19
78825;BME280;68176;45.554;10.220;2023-03-01T07:21:15;100122.53;;;6.93;52.29
78825;BME280;68176;45.554;10.220;2023-03-01T07:23:47;100125.00;;;6.82;53.12
78825;BME280;68176;45.554;10.220;2023-03-01T07:26:15;100117.09;;;6.71;53.65
78825;BME280;68176;45.554;10.220;2023-03-01T07:28:45;100101.50;;;6.57;54.35
78825;BME280;68176;45.554;10.220;2023-03-01T07:31:17;100129.88;;;6.34;55.79
78825;BME280;68176;45.554;10.220;2023-03-01T07:33:45;100114.13;;;6.63;54.29
78825;BME280;68176;45.554;10.220;2023-03-01T07:36:15;100115.59;;;6.67;54.58
78825;BME280;68176;45.554;10.220;2023-03-01T07:38:45;100114.00;;;6.25;54.59
78825;BME280;68176;45.554;10.220;2023-03-01T07:41:15;100106.34;;;6.09;55.24
78825;BME280;68176;45.554;10.220;2023-03-01T07:43:45;100119.22;;;6.52;55.49
78825;BME280;68176;45.554;10.220;2023-03-01T07:46:15;100114.13;;;6.63;55.11
78825;BME280;68176;45.554;10.220;2023-03-01T07:48:45;100098.50;;;6.63;54.64
78825;BME280;68176;45.554;10.220;2023-03-01T07:51:15;100085.75;;;6.46;54.71
78825;BME280;68176;45.554;10.220;2023-03-01T07:53:46;100095.81;;;6.77;54.26
78825;BME280;68176;45.554;10.220;2023-03-01T07:56:15;100102.22;;;7.11;54.34
78825;BME280;68176;45.554;10.220;2023-03-01T07:58:45;100093.13;;;7.16;53.90
78825;BME280;68176;45.554;10.220;2023-03-01T08:01:18;100100.22;;;7.39;53.66
78825;BME280;68176;45.554;10.220;2023-03-01T08:03:54;100103.75;;;7.51;52.12
78825;BME280;68176;45.554;10.220;2023-03-01T08:06:20;100073.75;;;7.08;53.39
78825;BME280;68176;45.554;10.220;2023-03-01T08:08:45;100096.69;;;6.90;54.48
78825;BME280;68176;45.554;10.220;2023-03-01T08:11:15;100091.47;;;7.15;54.16
78825;BME280;68176;45.554;10.220;2023-03-01T08:13:48;100099.09;;;7.31;54.60
78825;BME280;68176;45.554;10.220;2023-03-01T08:16:15;100084.81;;;7.11;53.02
78825;BME280;68176;45.554;10.220;2023-03-01T08:18:45;100075.81;;;6.77;53.69
78825;BME280;68176;45.554;10.220;2023-03-01T08:21:17;100076.97;;;6.98;53.83
78825;BME280;68176;45.554;10.220;2023-03-01T08:23:45;100069.75;;;6.77;53.40
78825;BME280;68176;45.554;10.220;2023-03-01T08:26:18;100067.47;;;7.10;53.92
78825;BME280;68176;45.554;10.220;2023-03-01T08:28:47;100070.19;;;7.21;54.20
78825;BME280;68176;45.554;10.220;2023-03-01T08:33:49;100073.53;;;7.11;52.61
78825;BME280;68176;45.554;10.220;2023-03-01T08:36:20;100068.91;;;7.52;53.22
78825;BME280;68176;45.554;10.220;2023-03-01T08:38:46;100069.31;;;7.59;53.19
78825;BME280;68176;45.554;10.220;2023-03-01T08:41:15;100068.50;;;7.45;52.78
78825;BME280;68176;45.554;10.220;2023-03-01T08:43:45;100069.34;;;6.95;53.88
78825;BME280;68176;45.554;10.220;2023-03-01T08:46:15;100051.19;;;7.32;54.38
78825;BME280;68176;45.554;10.220;2023-03-01T08:48:45;100048.72;;;7.05;54.23
78825;BME280;68176;45.554;10.220;2023-03-01T08:51:17;100030.50;;;7.41;52.47
78825;BME280;68176;45.554;10.220;2023-03-01T08:53:45;100029.28;;;7.22;53.12
78825;BME280;68176;45.554;10.220;2023-03-01T08:56:16;100035.72;;;7.41;52.44
78825;BME280;68176;45.554;10.220;2023-03-01T08:58:46;100028.03;;;7.64;52.87
78825;BME280;68176;45.554;10.220;2023-03-01T09:01:17;100038.72;;;7.61;53.12
78825;BME280;68176;45.554;10.220;2023-03-01T09:03:46;100033.97;;;7.78;53.12
78825;BME280;68176;45.554;10.220;2023-03-01T09:06:15;100036.09;;;7.61;52.55
78825;BME280;68176;45.554;10.220;2023-03-01T09:08:49;100000.22;;;7.51;52.98
78825;BME280;68176;45.554;10.220;2023-03-01T09:11:21;100021.91;;;7.65;53.84
78825;BME280;68176;45.554;10.220;2023-03-01T09:13:47;100029.84;;;7.50;54.10
78825;BME280;68176;45.554;10.220;2023-03-01T09:16:18;100022.59;;;7.67;54.37
78825;BME280;68176;45.554;10.220;2023-03-01T09:18:49;100027.81;;;8.03;53.06
78825;BME280;68176;45.554;10.220;2023-03-01T09:21:17;100002.28;;;7.83;52.27
78825;BME280;68176;45.554;10.220;2023-03-01T09:24:03;100009.81;;;7.51;54.29
78825;BME280;68176;45.554;10.220;2023-03-01T09:30:00;99984.19;;;7.92;53.50
78825;BME280;68176;45.554;10.220;2023-03-01T09:32:32;99986.06;;;8.14;54.42
78825;BME280;68176;45.554;10.220;2023-03-01T09:35:01;99983.22;;;8.17;53.51
78825;BME280;68176;45.554;10.220;2023-03-01T09:37:29;99994.22;;;8.33;53.17
78825;BME280;68176;45.554;10.220;2023-03-01T09:39:55;99979.44;;;7.97;54.46
78825;BME280;68176;45.554;10.220;2023-03-01T09:42:25;100003.88;;;8.20;55.26
78825;BME280;68176;45.554;10.220;2023-03-01T09:44:59;99983.16;;;8.30;53.76
78825;BME280;68176;45.554;10.220;2023-03-01T09:47:29;99973.31;;;8.33;53.22
78825;BME280;68176;45.554;10.220;2023-03-01T09:58:44;99953.63;;;8.40;52.40
78825;BME280;68176;45.554;10.220;2023-03-01T10:04:19;99956.28;;;8.74;54.69
78825;BME280;68176;45.554;10.220;2023-03-01T10:09:33;99928.22;;;9.09;51.38
78825;BME280;68176;45.554;10.220;2023-03-01T10:11:59;99950.31;;;9.27;52.19
78825;BME280;68176;45.554;10.220;2023-03-01T10:14:39;99923.94;;;9.19;51.44
78825;BME280;68176;45.554;10.220;2023-03-01T10:17:20;99928.66;;;9.36;51.54
78825;BME280;68176;45.554;10.220;2023-03-01T10:19:49;99903.66;;;9.43;51.45
78825;BME280;68176;45.554;10.220;2023-03-01T10:22:24;99890.56;;;9.54;50.33
78825;BME280;68176;45.554;10.220;2023-03-01T10:25:01;99911.53;;;9.75;50.07
78825;BME280;68176;45.554;10.220;2023-03-01T10:27:53;99910.78;;;9.84;50.50
78825;BME280;68176;45.554;10.220;2023-03-01T10:30:35;99905.44;;;9.86;49.94
78825;BME280;68176;45.554;10.220;2023-03-01T10:33:14;99908.44;;;10.02;48.67
78825;BME280;68176;45.554;10.220;2023-03-01T10:35:42;99902.03;;;9.95;50.31
78825;BME280;68176;45.554;10.220;2023-03-01T10:38:10;99896.56;;;9.98;50.05
78825;BME280;68176;45.554;10.220;2023-03-01T10:40:59;99892.66;;;10.13;49.43
78825;BME280;68176;45.554;10.220;2023-03-01T10:43:32;99884.47;;;9.86;49.82
78825;BME280;68176;45.554;10.220;2023-03-01T10:46:32;99897.31;;;10.09;49.46
78825;BME280;68176;45.554;10.220;2023-03-01T10:49:22;99880.06;;;9.86;49.03
78825;BME280;68176;45.554;10.220;2023-03-01T10:51:52;99876.34;;;9.89;49.54
78825;BME280;68176;45.554;10.220;2023-03-01T10:54:33;99891.56;;;9.95;49.09
78825;BME280;68176;45.554;10.220;2023-03-01T10:57:01;99886.75;;;10.00;49.70
78825;BME280;68176;45.554;10.220;2023-03-01T10:59:33;99894.50;;;10.01;49.80
78825;BME280;68176;45.554;10.220;2023-03-01T11:07:51;99869.25;;;10.00;49.15
78825;BME280;68176;45.554;10.220;2023-03-01T11:10:22;99865.81;;;10.00;48.49
78825;BME280;68176;45.554;10.220;2023-03-01T11:12:50;99848.94;;;9.93;48.66
78825;BME280;68176;45.554;10.220;2023-03-01T11:15:26;99870.06;;;9.80;49.85
78825;BME280;68176;45.554;10.220;2023-03-01T11:17:52;99868.25;;;9.92;48.51
78825;BME280;68176;45.554;10.220;2023-03-01T11:20:29;99865.88;;;9.89;49.83
78825;BME280;68176;45.554;10.220;2023-03-01T11:23:13;99856.78;;;9.93;48.35
78825;BME280;68176;45.554;10.220;2023-03-01T11:25:42;99864.66;;;9.93;50.08
78825;BME280;68176;45.554;10.220;2023-03-01T11:28:14;99849.44;;;9.87;49.65
78825;BME280;68176;45.554;10.220;2023-03-01T11:33:20;99846.25;;;10.04;49.72
78825;BME280;68176;45.554;10.220;2023-03-01T11:36:00;99851.59;;;10.13;49.36
78825;BME280;68176;45.554;10.220;2023-03-01T11:38:27;99855.63;;;10.18;49.44
78825;BME280;68176;45.554;10.220;2023-03-01T11:51:48;99845.75;;;10.10;49.02
78825;BME280;68176;45.554;10.220;2023-03-01T11:57:38;99851.50;;;10.04;48.75
78825;BME280;68176;45.554;10.220;2023-03-01T12:05:51;99845.25;;;10.16;49.62
78825;BME280;68176;45.554;10.220;2023-03-01T12:08:49;99853.00;;;10.18;49.96
78825;BME280;68176;45.554;10.220;2023-03-01T12:14:46;99855.22;;;10.01;50.47
78825;BME280;68176;45.554;10.220;2023-03-01T12:23:52;99852.56;;;9.81;51.87
78825;BME280;68176;45.554;10.220;2023-03-01T12:26:36;99853.16;;;9.84;51.04
78825;BME280;68176;45.554;10.220;2023-03-01T12:29:37;99849.94;;;9.81;51.31
78825;BME280;68176;45.554;10.220;2023-03-01T12:32:40;99858.66;;;10.02;50.35
78825;BME280;68176;45.554;10.220;2023-03-01T12:38:41;99873.75;;;10.30;50.88
78825;BME280;68176;45.554;10.220;2023-03-01T12:56:00;99860.81;;;10.38;48.15
78825;BME280;68176;45.554;10.220;2023-03-01T13:08:43;99870.09;;;10.42;48.25
78825;BME280;68176;45.554;10.220;2023-03-01T13:11:26;99871.31;;;10.38;48.71
78825;BME280;68176;45.554;10.220;2023-03-01T13:20:29;99869.78;;;10.15;50.35
78825;BME280;68176;45.554;10.220;2023-03-01T13:26:29;99873.28;;;10.04;50.12
78825;BME280;68176;45.554;10.220;2023-03-01T13:28:57;99863.97;;;10.11;49.29
78825;BME280;68176;45.554;10.220;2023-03-01T13:33:54;99856.63;;;10.26;49.47
78825;BME280;68176;45.554;10.220;2023-03-01T13:39:03;99851.81;;;9.90;50.17
78825;BME280;68176;45.554;10.220;2023-03-01T13:50:35;99847.81;;;10.27;48.89
78825;BME280;68176;45.554;10.220;2023-03-01T13:59:47;99845.47;;;10.13;49.51
78825;BME280;68176;45.554;10.220;2023-03-01T14:02:13;99844.16;;;10.18;49.00
78825;BME280;68176;45.554;10.220;2023-03-01T14:08:28;99841.13;;;10.13;49.17
78825;BME280;68176;45.554;10.220;2023-03-01T14:11:16;99848.56;;;10.18;49.36
78825;BME280;68176;45.554;10.220;2023-03-01T14:20:44;99836.88;;;10.01;48.67
78825;BME280;68176;45.554;10.220;2023-03-01T14:28:56;99829.91;;;9.91;50.54
78825;BME280;68176;45.554;10.220;2023-03-01T14:32:01;99835.97;;;9.91;52.15
78825;BME280;68176;45.554;10.220;2023-03-01T14:53:37;99840.97;;;9.74;52.66
78825;BME280;68176;45.554;10.220;2023-03-01T15:02:55;99841.91;;;9.73;53.50
78825;BME280;68176;45.554;10.220;2023-03-01T15:09:02;99858.63;;;9.60;55.85
78825;BME280;68176;45.554;10.220;2023-03-01T15:18:54;99884.22;;;9.25;60.86
78825;BME280;68176;45.554;10.220;2023-03-01T15:21:59;99874.00;;;9.22;60.67
78825;BME280;68176;45.554;10.220;2023-03-01T15:28:33;99890.91;;;9.07;61.30
78825;BME280;68176;45.554;10.220;2023-03-01T15:49:39;99891.91;;;8.73;63.80
78825;BME280;68176;45.554;10.220;2023-03-01T15:52:11;99891.53;;;8.77;63.66
78825;BME280;68176;45.554;10.220;2023-03-01T15:54:39;99893.56;;;8.85;64.21
78825;BME280;68176;45.554;10.220;2023-03-01T15:57:13;99888.78;;;8.90;63.45
78825;BME280;68176;45.554;10.220;2023-03-01T15:59:41;99895.19;;;8.97;63.29
78825;BME280;68176;45.554;10.220;2023-03-01T16:02:12;99888.28;;;8.96;63.56
78825;BME280;68176;45.554;10.220;2023-03-01T16:04:40;99901.84;;;9.01;63.55
78825;BME280;68176;45.554;10.220;2023-03-01T16:07:06;99896.50;;;9.02;62.97
78825;BME280;68176;45.554;10.220;2023-03-01T16:09:42;99901.38;;;9.07;63.17
78825;BME280;68176;45.554;10.220;2023-03-01T16:12:15;99907.31;;;9.09;62.99
78825;BME280;68176;45.554;10.220;2023-03-01T16:14:46;99906.59;;;9.07;63.30
78825;BME280;68176;45.554;10.220;2023-03-01T16:17:13;99901.38;;;9.07;63.03
78825;BME280;68176;45.554;10.220;2023-03-01T16:19:43;99907.44;;;9.07;63.59
78825;BME280;68176;45.554;10.220;2023-03-01T16:22:10;99917.06;;;9.07;63.53
78825;BME280;68176;45.554;10.220;2023-03-01T16:24:40;99918.47;;;9.11;62.74
78825;BME280;68176;45.554;10.220;2023-03-01T16:27:07;99916.81;;;9.10;62.92
78825;BME280;68176;45.554;10.220;2023-03-01T16:29:37;99921.31;;;9.08;63.12
78825;BME280;68176;45.554;10.220;2023-03-01T16:32:07;99923.69;;;9.11;62.96
78825;BME280;68176;45.554;10.220;2023-03-01T16:34:37;99923.69;;;9.11;63.11
78825;BME280;68176;45.554;10.220;2023-03-01T16:37:07;99927.03;;;9.13;62.94
78825;BME280;68176;45.554;10.220;2023-03-01T16:39:38;99932.75;;;9.18;63.34